Предлагаем Вашему вниманию английскую версию страницы: AUTOTAF.ME 13384 - aviation weather forecast Cuprija

AUTOTAF 13384 - авиапрогноз Cuprija

Сегодня рассвет 04:38 UTC, восход солнца 05:07 UTC,
местный полдень 10:18 UTC, заход солнца 15:28 UTC,
наступление темноты 15:57 UTC.

Краткий прогноз 13384 на 9 часов

AUTOTAF.ME 13384 292000Z 2921/3006 VRB02MPS 9999 VCSH BKN008 BKN010CB    
  FM300000 33004MPS 5000 BKN008 BKN010CB
   TEMPO 2922/3001 -TSRA  
  FM300300 32004MPS 8000 -RA BR OVC009 
  BECMG 3004/3006 5000

Детальный прогноз 13384 на 24 часа

AUTOTAF.ME 13384 292000Z 2921/3021 VRB02MPS 9999 VCSH BKN008 BKN010CB TX12/3012Z TN07/3006Z  
  FM300000 33004MPS 5000 BKN008 BKN010CB
   TEMPO 2922/3001 -TSRA  
  FM300300 32004MPS 8000 -RA BR OVC009 
  BECMG 3004/3006 5000  
  FM300900 32007MPS 9999 BKN023  
  BECMG 3013/3015 32003MPS  
  BECMG 3016/3018 VRB02MPS

Подробный табличный прогноз

Время (UTC) miniAUTOTAF на 3 ч WX FZLVL
M AGL
ICE TURB Т
(°С)
Тd
(°С)
f(%) QNH
(гПа)
WIND/T
18 VRB02MPS 9999 BKN008 2550 MOD FL190/FL200 11 8 85 1018 ...
21 VRB02MPS 9999 VCSH BKN008 BKN010CB VCSH 2400 MOD FL110/FL120 11 9 86 1019 ...
30.10.2020
00 33004MPS 5000 BKN008 BKN010CB TEMPO -TSRA -TSRA 1950 MOD FL70/FL110 10 9 95 1021 ...
03 32004MPS 8000 -RA BR OVC009 -RA BR 1650 9 8 93 1022 ...
06 32003MPS 5000 -RA BR BKN009 -RA BR 1350 7 7 97 1023 ...
09 32007MPS 9999 BKN023 1500 MOD FL190/FL200 MOD SFC/FL40 10 5 69 1023 ...
12 32007MPS 9999 SCT046 1650 MOD FL190/FL200 MOD SFC/FL50 12 3 55 1022 ...
15 32003MPS 9999 BKN046 1800 MOD FL90/FL170 MOD FL30/FL40 10 3 61 1022 ...
18 VRB02MPS 9999 OVC047 1950 FBL FL90/FL190 8 2 69 1024 ...
21 VRB02MPS 9999 BKN024 2100 MOD FL70/FL80 8 3 72 1024 ...
31.10.2020
00 VRB02MPS 9999 BKN016 2100 MOD FL90/FL100 9 5 76 1024 ...
03 VRB02MPS 9999 OVC009 2100 MOD FL70/FL80 9 6 82 1023 ...
06 VRB02MPS 9999 -RA OVC009 -RA 2250 MOD FL90/FL110 9 7 88 1023 ...
09 VRB02MPS 5000 -RA BR OVC007 -RA BR 2250 FBL FL90/FL120 9 8 93 1022 ...
12 VRB02MPS 9999 -RA OVC008 -RA 2250 FBL FL90/FL150 MOD FL30/FL40 10 8 91 1020 ...
15 VRB02MPS 9999 -RA OVC008 -RA 2250 FBL FL90/FL120 MOD FL30/FL40 10 9 89 1020 ...


Широта 43.9°, долгота 21.4°, высота 125 м абс.
Средняя высота рельефа местности 391 м абс.
Прогнозы обновляются четыре раза в сутки: в 02, 08, 14, 20 ч всемирного времени.


Выбрать прогноз по другой модели Cuprija
Онлайн-сводка гроз по Cuprija (для РФ и ближнего зарубежья)
Карта фактических гроз в окрестностях Cuprija
Динамические прогностические карты (ventusky.com)
Прогностическая карта высоты нижней границы облаков по Cuprija (windy.com)
Выбрать другой город

Прогноз предназначен для личного научно-познавательного использования частными лицами
и не предназначен для принятия важных решений и выполнения реальных полётов воздушных судов

При копировании или ином использовании любых материалов данного сайта ссылка на © meteocenter.asia обязательна.

1.07/1.7